OVO2254 ZUCK-ZJSY
Flight info
| Callsign | OVO2254 |
|---|---|
| Flight time | 1h 57m |
| Altitude | 35100 |
| Route | VILUS W180 ELBAV W181 DUDIT A599 LBN W159 BHY W70 NYB/K0857S1100 G221 UPRIS |
| Aircraft | A320/M-SDE3FGHIRWY/LB1 |
Departure
| Time | 2026-04-30 12:15 |
|---|---|
| Airport | Chongqing Jiangbei International Airport (ZUCK) |
Arrival
| Time | 2026-04-30 14:12 |
|---|---|
| Airport | Sanya Phoenix International Airport (ZJSY) |
| Time | Latitude | Longitude | Altitude | Speed | Heading |
|---|---|---|---|---|---|
| 2026-04-30 11:54 | 29.71498 | 106.65650 | 1373 ft | 0 kts | 300° |
| 2026-04-30 12:06 | 29.71493 | 106.65660 | 1373 ft | 2 kts | 300° |
| 2026-04-30 12:06 | 29.71486 | 106.65675 | 1373 ft | 2 kts | 300° |
| 2026-04-30 12:07 | 29.71478 | 106.65690 | 1373 ft | 2 kts | 300° |
| 2026-04-30 12:07 | 29.71470 | 106.65705 | 1373 ft | 2 kts | 300° |
| 2026-04-30 12:07 | 29.71463 | 106.65720 | 1373 ft | 2 kts | 311° |
| 2026-04-30 12:07 | 29.71451 | 106.65730 | 1373 ft | 2 kts | 340° |
| 2026-04-30 12:08 | 29.71436 | 106.65733 | 1373 ft | 2 kts | 7° |
| 2026-04-30 12:08 | 29.71425 | 106.65729 | 1373 ft | 0 kts | 27° |
| 2026-04-30 12:08 | 29.71419 | 106.65724 | 1373 ft | 0 kts | 31° |
| 2026-04-30 12:08 | 29.71418 | 106.65724 | 1373 ft | 0 kts | 31° |
| 2026-04-30 12:10 | 29.71420 | 106.65725 | 1373 ft | 0 kts | 31° |
| 2026-04-30 12:10 | 29.71422 | 106.65726 | 1373 ft | 1 kts | 30° |
| 2026-04-30 12:10 | 29.71434 | 106.65734 | 1373 ft | 1 kts | 26° |
| 2026-04-30 12:11 | 29.71450 | 106.65743 | 1373 ft | 5 kts | 22° |
| 2026-04-30 12:11 | 29.71489 | 106.65757 | 1373 ft | 5 kts | 17° |
| 2026-04-30 12:11 | 29.71522 | 106.65781 | 1373 ft | 5 kts | 53° |
| 2026-04-30 12:11 | 29.71527 | 106.65823 | 1373 ft | 5 kts | 100° |
| 2026-04-30 12:12 | 29.71518 | 106.65862 | 1373 ft | 5 kts | 105° |
| 2026-04-30 12:12 | 29.71508 | 106.65900 | 1373 ft | 5 kts | 107° |
| 2026-04-30 12:12 | 29.71497 | 106.65939 | 1373 ft | 5 kts | 107° |
| 2026-04-30 12:12 | 29.71486 | 106.65980 | 1373 ft | 6 kts | 107° |
| 2026-04-30 12:13 | 29.71470 | 106.66044 | 1373 ft | 8 kts | 106° |
| 2026-04-30 12:13 | 29.71455 | 106.66106 | 1373 ft | 7 kts | 95° |
| 2026-04-30 12:13 | 29.71473 | 106.66153 | 1373 ft | 6 kts | 42° |
| 2026-04-30 12:13 | 29.71511 | 106.66172 | 1373 ft | 6 kts | 17° |
| 2026-04-30 12:14 | 29.71730 | 106.66253 | 1373 ft | 65 kts | 16° |
| 2026-04-30 12:14 | 29.72358 | 106.66473 | 1374 ft | 122 kts | 15° |
| 2026-04-30 12:14 | 29.73333 | 106.66810 | 1376 ft | 170 kts | 19° |
| 2026-04-30 12:14 | 29.74474 | 106.67271 | 1848 ft | 172 kts | 21° |
| 2026-04-30 12:15 | 29.75606 | 106.67683 | 2433 ft | 173 kts | 18° |
| 2026-04-30 12:15 | 29.76761 | 106.68061 | 2990 ft | 174 kts | 22° |
| 2026-04-30 12:15 | 29.77891 | 106.68650 | 3390 ft | 182 kts | 34° |
| 2026-04-30 12:15 | 29.78965 | 106.69521 | 3665 ft | 195 kts | 39° |
| 2026-04-30 12:16 | 29.80123 | 106.70443 | 3949 ft | 210 kts | 36° |
| 2026-04-30 12:16 | 29.81407 | 106.71391 | 4245 ft | 226 kts | 35° |
| 2026-04-30 12:16 | 29.82784 | 106.72385 | 4482 ft | 247 kts | 34° |
| 2026-04-30 12:16 | 29.84279 | 106.73453 | 4969 ft | 256 kts | 36° |
| 2026-04-30 12:17 | 29.86171 | 106.76704 | 6198 ft | 254 kts | 86° |
| 2026-04-30 12:17 | 29.86018 | 106.78759 | 6560 ft | 265 kts | 109° |
| 2026-04-30 12:17 | 29.85438 | 106.80816 | 7136 ft | 273 kts | 110° |
| 2026-04-30 12:18 | 29.84851 | 106.82904 | 7841 ft | 277 kts | 110° |
| 2026-04-30 12:18 | 29.84270 | 106.85023 | 8544 ft | 281 kts | 109° |
| 2026-04-30 12:18 | 29.83692 | 106.87164 | 9217 ft | 285 kts | 109° |
| 2026-04-30 12:18 | 29.83104 | 106.89378 | 9884 ft | 289 kts | 109° |
| 2026-04-30 12:19 | 29.82514 | 106.91595 | 10463 ft | 295 kts | 109° |
| 2026-04-30 12:19 | 29.81898 | 106.93913 | 10759 ft | 311 kts | 109° |
| 2026-04-30 12:19 | 29.81226 | 106.96344 | 11023 ft | 326 kts | 113° |
| 2026-04-30 12:19 | 29.80013 | 106.98587 | 11266 ft | 338 kts | 135° |
| 2026-04-30 12:20 | 29.78108 | 107.00205 | 11588 ft | 346 kts | 156° |
| 2026-04-30 12:20 | 29.75781 | 107.00942 | 12086 ft | 348 kts | 176° |
| 2026-04-30 12:20 | 29.73379 | 107.00684 | 12586 ft | 350 kts | 195° |
| 2026-04-30 12:20 | 29.71050 | 106.99867 | 13122 ft | 352 kts | 198° |
| 2026-04-30 12:21 | 29.68692 | 106.99023 | 13618 ft | 355 kts | 197° |
| 2026-04-30 12:21 | 29.66354 | 106.98196 | 14095 ft | 358 kts | 197° |
| 2026-04-30 12:21 | 29.63957 | 106.97361 | 14595 ft | 359 kts | 197° |
| 2026-04-30 12:21 | 29.61502 | 106.96693 | 15095 ft | 362 kts | 191° |
| 2026-04-30 12:22 | 29.59008 | 106.96325 | 15537 ft | 365 kts | 186° |
| 2026-04-30 12:22 | 29.56444 | 106.96219 | 15976 ft | 369 kts | 182° |
| 2026-04-30 12:22 | 29.53858 | 106.96184 | 16389 ft | 372 kts | 182° |
| 2026-04-30 12:22 | 29.51265 | 106.96160 | 16818 ft | 374 kts | 182° |
| 2026-04-30 12:23 | 29.48675 | 106.96133 | 17241 ft | 376 kts | 182° |
| 2026-04-30 12:23 | 29.46030 | 106.96104 | 17642 ft | 379 kts | 183° |
| 2026-04-30 12:23 | 29.43376 | 106.96074 | 18056 ft | 381 kts | 183° |
| 2026-04-30 12:23 | 29.40723 | 106.96042 | 18442 ft | 384 kts | 183° |
| 2026-04-30 12:24 | 29.38025 | 106.96011 | 18820 ft | 387 kts | 183° |
| 2026-04-30 12:24 | 29.35325 | 106.95978 | 19196 ft | 389 kts | 183° |
| 2026-04-30 12:24 | 29.32597 | 106.95945 | 19570 ft | 392 kts | 183° |
| 2026-04-30 12:24 | 29.29868 | 106.95914 | 19945 ft | 394 kts | 183° |
| 2026-04-30 12:25 | 29.27140 | 106.95882 | 20321 ft | 396 kts | 184° |
| 2026-04-30 12:25 | 29.24356 | 106.95846 | 20673 ft | 399 kts | 184° |
| 2026-04-30 12:25 | 29.21585 | 106.95812 | 21010 ft | 402 kts | 184° |
| 2026-04-30 12:25 | 29.18775 | 106.95779 | 21358 ft | 404 kts | 184° |
| 2026-04-30 12:26 | 29.15938 | 106.95745 | 21708 ft | 406 kts | 184° |
| 2026-04-30 12:26 | 29.13106 | 106.95709 | 22038 ft | 409 kts | 184° |
| 2026-04-30 12:26 | 29.10232 | 106.95674 | 22367 ft | 411 kts | 184° |
| 2026-04-30 12:26 | 29.07356 | 106.95641 | 22672 ft | 414 kts | 184° |
| 2026-04-30 12:27 | 29.04467 | 106.95608 | 22982 ft | 417 kts | 184° |
| 2026-04-30 12:27 | 29.01583 | 106.95572 | 23258 ft | 420 kts | 184° |
| 2026-04-30 12:27 | 28.98637 | 106.95536 | 23567 ft | 422 kts | 184° |
| 2026-04-30 12:27 | 28.95698 | 106.95500 | 23886 ft | 424 kts | 185° |
| 2026-04-30 12:28 | 28.92723 | 106.95465 | 24194 ft | 426 kts | 185° |
| 2026-04-30 12:28 | 28.89747 | 106.95431 | 24504 ft | 428 kts | 185° |
| 2026-04-30 12:28 | 28.86752 | 106.95394 | 24795 ft | 430 kts | 185° |
| 2026-04-30 12:28 | 28.83762 | 106.95357 | 25089 ft | 432 kts | 185° |
| 2026-04-30 12:29 | 28.80718 | 106.95319 | 25375 ft | 435 kts | 185° |
| 2026-04-30 12:29 | 28.77673 | 106.95282 | 25640 ft | 437 kts | 185° |
| 2026-04-30 12:29 | 28.74656 | 106.95247 | 25949 ft | 438 kts | 185° |
| 2026-04-30 12:29 | 28.71607 | 106.95212 | 26224 ft | 441 kts | 185° |
| 2026-04-30 12:30 | 28.68505 | 106.95174 | 26518 ft | 442 kts | 185° |
| 2026-04-30 12:30 | 28.65437 | 106.95136 | 26793 ft | 444 kts | 185° |
| 2026-04-30 12:30 | 28.62336 | 106.95100 | 27052 ft | 446 kts | 185° |
| 2026-04-30 12:30 | 28.59238 | 106.95065 | 27305 ft | 449 kts | 186° |
| 2026-04-30 12:31 | 28.56072 | 106.95026 | 27562 ft | 451 kts | 186° |
| 2026-04-30 12:31 | 28.52921 | 106.94991 | 27823 ft | 453 kts | 186° |
| 2026-04-30 12:31 | 28.49772 | 106.94952 | 28086 ft | 454 kts | 186° |
| 2026-04-30 12:31 | 28.46601 | 106.94915 | 28324 ft | 457 kts | 186° |
| 2026-04-30 12:32 | 28.43417 | 106.94876 | 28546 ft | 459 kts | 186° |
| 2026-04-30 12:32 | 28.40218 | 106.94838 | 28769 ft | 461 kts | 186° |
| 2026-04-30 12:32 | 28.36990 | 106.94800 | 29031 ft | 462 kts | 186° |
| 2026-04-30 12:32 | 28.33754 | 106.94762 | 29337 ft | 462 kts | 186° |
| 2026-04-30 12:33 | 28.30541 | 106.94724 | 29650 ft | 462 kts | 186° |
| 2026-04-30 12:33 | 28.27327 | 106.94686 | 29976 ft | 461 kts | 186° |
| 2026-04-30 12:33 | 28.24155 | 106.94676 | 30308 ft | 461 kts | 184° |
| 2026-04-30 12:33 | 28.20919 | 106.94817 | 30597 ft | 462 kts | 182° |
| 2026-04-30 12:34 | 28.17732 | 106.94994 | 30884 ft | 461 kts | 182° |
| 2026-04-30 12:34 | 28.14515 | 106.95176 | 31171 ft | 461 kts | 182° |
| 2026-04-30 12:34 | 28.11305 | 106.95357 | 31444 ft | 461 kts | 182° |
| 2026-04-30 12:34 | 28.08118 | 106.95535 | 31711 ft | 461 kts | 182° |
| 2026-04-30 12:35 | 28.04911 | 106.95715 | 31986 ft | 460 kts | 182° |
| 2026-04-30 12:35 | 28.01696 | 106.95885 | 32245 ft | 460 kts | 182° |
| 2026-04-30 12:35 | 27.98510 | 106.96053 | 32484 ft | 461 kts | 182° |
| 2026-04-30 12:35 | 27.95292 | 106.96221 | 32759 ft | 460 kts | 182° |
| 2026-04-30 12:36 | 27.92103 | 106.96390 | 33055 ft | 459 kts | 182° |
| 2026-04-30 12:36 | 27.88911 | 106.96558 | 33333 ft | 459 kts | 182° |
| 2026-04-30 12:36 | 27.85729 | 106.96725 | 33567 ft | 459 kts | 182° |
| 2026-04-30 12:36 | 27.82529 | 106.96893 | 33755 ft | 461 kts | 182° |
| 2026-04-30 12:37 | 27.79380 | 106.97057 | 33939 ft | 462 kts | 182° |
| 2026-04-30 12:37 | 27.76088 | 106.97231 | 34122 ft | 463 kts | 182° |
| 2026-04-30 12:37 | 27.72848 | 106.97401 | 34333 ft | 464 kts | 182° |
| 2026-04-30 12:37 | 27.69633 | 106.97569 | 34524 ft | 465 kts | 182° |
| 2026-04-30 12:38 | 27.66399 | 106.97739 | 34696 ft | 466 kts | 182° |
| 2026-04-30 12:38 | 27.63177 | 106.97907 | 34856 ft | 467 kts | 182° |
| 2026-04-30 12:38 | 27.59898 | 106.98080 | 34999 ft | 468 kts | 182° |
| 2026-04-30 12:38 | 27.56646 | 106.98251 | 35145 ft | 469 kts | 182° |
| 2026-04-30 12:39 | 27.50116 | 106.98595 | 35191 ft | 471 kts | 182° |
| 2026-04-30 12:39 | 27.43575 | 106.98942 | 35191 ft | 471 kts | 182° |
| 2026-04-30 12:40 | 27.37015 | 106.99298 | 35186 ft | 472 kts | 182° |
| 2026-04-30 12:40 | 27.30425 | 106.99655 | 35188 ft | 472 kts | 182° |
| 2026-04-30 12:41 | 27.23865 | 107.00009 | 35183 ft | 472 kts | 182° |
| 2026-04-30 12:41 | 27.17309 | 107.00361 | 35188 ft | 473 kts | 182° |
| 2026-04-30 12:42 | 27.10722 | 107.00714 | 35182 ft | 473 kts | 182° |
| 2026-04-30 12:42 | 27.04154 | 107.01068 | 35187 ft | 473 kts | 182° |
| 2026-04-30 12:43 | 26.97552 | 107.01423 | 35198 ft | 474 kts | 182° |
| 2026-04-30 12:43 | 26.90988 | 107.01770 | 35207 ft | 474 kts | 182° |
| 2026-04-30 12:44 | 26.84386 | 107.02082 | 35203 ft | 473 kts | 182° |
| 2026-04-30 12:44 | 26.77792 | 107.02406 | 35204 ft | 473 kts | 182° |
| 2026-04-30 12:45 | 26.71211 | 107.02753 | 35200 ft | 472 kts | 182° |
| 2026-04-30 12:45 | 26.64675 | 107.03095 | 35205 ft | 471 kts | 182° |
| 2026-04-30 12:46 | 26.58090 | 107.03437 | 35210 ft | 471 kts | 182° |
| 2026-04-30 12:46 | 26.51583 | 107.03768 | 35216 ft | 471 kts | 182° |
| 2026-04-30 12:47 | 26.45044 | 107.04097 | 35220 ft | 470 kts | 182° |
| 2026-04-30 12:47 | 26.38505 | 107.04388 | 35224 ft | 471 kts | 180° |
| 2026-04-30 12:48 | 26.32018 | 107.05859 | 35232 ft | 480 kts | 165° |
| 2026-04-30 12:48 | 26.25976 | 107.09125 | 35239 ft | 487 kts | 149° |
| 2026-04-30 12:49 | 26.20750 | 107.13991 | 35244 ft | 492 kts | 138° |
| 2026-04-30 12:49 | 26.15915 | 107.19375 | 35231 ft | 493 kts | 137° |
| 2026-04-30 12:50 | 26.11105 | 107.24719 | 35228 ft | 492 kts | 137° |
| 2026-04-30 12:50 | 26.06230 | 107.30077 | 35221 ft | 493 kts | 137° |
| 2026-04-30 12:51 | 26.01353 | 107.35413 | 35221 ft | 492 kts | 137° |
| 2026-04-30 12:51 | 25.96468 | 107.40743 | 35215 ft | 491 kts | 137° |
| 2026-04-30 12:52 | 25.91591 | 107.46062 | 35219 ft | 491 kts | 137° |
| 2026-04-30 12:52 | 25.86717 | 107.51372 | 35219 ft | 490 kts | 138° |
| 2026-04-30 12:53 | 25.81846 | 107.56673 | 35223 ft | 490 kts | 137° |
| 2026-04-30 12:53 | 25.76978 | 107.61964 | 35221 ft | 490 kts | 137° |
| 2026-04-30 12:54 | 25.72095 | 107.67266 | 35215 ft | 490 kts | 138° |
| 2026-04-30 12:54 | 25.67270 | 107.72532 | 35208 ft | 490 kts | 137° |
| 2026-04-30 12:55 | 25.62432 | 107.77837 | 35204 ft | 488 kts | 137° |
| 2026-04-30 12:55 | 25.57605 | 107.83120 | 35202 ft | 488 kts | 137° |
| 2026-04-30 12:56 | 25.52773 | 107.88397 | 35198 ft | 488 kts | 138° |
| 2026-04-30 12:56 | 25.47471 | 107.93000 | 35190 ft | 482 kts | 152° |
| 2026-04-30 12:57 | 25.41451 | 107.96127 | 35185 ft | 475 kts | 165° |
| 2026-04-30 12:57 | 25.35043 | 107.97685 | 35186 ft | 469 kts | 177° |
| 2026-04-30 12:58 | 25.28557 | 107.98460 | 35185 ft | 467 kts | 178° |
| 2026-04-30 12:58 | 25.22086 | 107.99213 | 35187 ft | 466 kts | 178° |
| 2026-04-30 12:59 | 25.15626 | 107.99985 | 35181 ft | 466 kts | 178° |
| 2026-04-30 12:59 | 25.09187 | 108.00768 | 35175 ft | 467 kts | 178° |
| 2026-04-30 13:00 | 25.02720 | 108.01554 | 35168 ft | 467 kts | 178° |
| 2026-04-30 13:00 | 24.96245 | 108.02340 | 35162 ft | 467 kts | 178° |
| 2026-04-30 13:01 | 24.89770 | 108.03128 | 35153 ft | 466 kts | 177° |
| 2026-04-30 13:01 | 24.83324 | 108.03912 | 35146 ft | 465 kts | 177° |
| 2026-04-30 13:02 | 24.76873 | 108.04696 | 35142 ft | 466 kts | 177° |
| 2026-04-30 13:02 | 24.70420 | 108.05479 | 35144 ft | 466 kts | 178° |
| 2026-04-30 13:03 | 24.63972 | 108.06260 | 35148 ft | 466 kts | 178° |
| 2026-04-30 13:03 | 24.57524 | 108.07040 | 35148 ft | 466 kts | 177° |
| 2026-04-30 13:04 | 24.51075 | 108.07819 | 35149 ft | 466 kts | 177° |
| 2026-04-30 13:04 | 24.44611 | 108.08607 | 35149 ft | 467 kts | 177° |
| 2026-04-30 13:05 | 24.38158 | 108.09391 | 35147 ft | 466 kts | 177° |
| 2026-04-30 13:06 | 24.28477 | 108.10566 | 35145 ft | 466 kts | 177° |
| 2026-04-30 13:06 | 24.22032 | 108.11348 | 35144 ft | 466 kts | 177° |
| 2026-04-30 13:07 | 24.15582 | 108.12129 | 35143 ft | 466 kts | 177° |
| 2026-04-30 13:07 | 24.09167 | 108.12907 | 35143 ft | 466 kts | 177° |
| 2026-04-30 13:08 | 24.02657 | 108.13695 | 35142 ft | 466 kts | 177° |
| 2026-04-30 13:08 | 23.96206 | 108.14474 | 35143 ft | 464 kts | 177° |
| 2026-04-30 13:09 | 23.89864 | 108.15968 | 35130 ft | 473 kts | 158° |
| 2026-04-30 13:09 | 23.87029 | 108.17774 | 35135 ft | 478 kts | 144° |
| 2026-04-30 13:09 | 23.84606 | 108.20264 | 35133 ft | 482 kts | 130° |
| 2026-04-30 13:09 | 23.82752 | 108.23311 | 35136 ft | 484 kts | 117° |
| 2026-04-30 13:10 | 23.81580 | 108.26739 | 35139 ft | 484 kts | 103° |
| 2026-04-30 13:10 | 23.80936 | 108.34073 | 35150 ft | 484 kts | 92° |
| 2026-04-30 13:11 | 23.80617 | 108.41423 | 35141 ft | 484 kts | 92° |
| 2026-04-30 13:11 | 23.80241 | 108.48742 | 35145 ft | 484 kts | 92° |
| 2026-04-30 13:12 | 23.79832 | 108.56012 | 35146 ft | 484 kts | 92° |
| 2026-04-30 13:12 | 23.79408 | 108.63335 | 35145 ft | 484 kts | 92° |
| 2026-04-30 13:13 | 23.78764 | 108.74349 | 35144 ft | 484 kts | 93° |
| 2026-04-30 13:14 | 23.78111 | 108.85361 | 35142 ft | 485 kts | 93° |
| 2026-04-30 13:14 | 23.77455 | 108.96309 | 35140 ft | 483 kts | 93° |
| 2026-04-30 13:15 | 23.75864 | 109.07075 | 35124 ft | 483 kts | 116° |
| 2026-04-30 13:15 | 23.74145 | 109.10193 | 35128 ft | 481 kts | 129° |
| 2026-04-30 13:16 | 23.71835 | 109.12804 | 35131 ft | 478 kts | 143° |
| 2026-04-30 13:16 | 23.69067 | 109.14777 | 35132 ft | 474 kts | 156° |
| 2026-04-30 13:16 | 23.66000 | 109.16028 | 35133 ft | 470 kts | 169° |
| 2026-04-30 13:17 | 23.56330 | 109.17386 | 35135 ft | 466 kts | 176° |
| 2026-04-30 13:18 | 23.46651 | 109.18600 | 35130 ft | 466 kts | 176° |
| 2026-04-30 13:18 | 23.36992 | 109.19864 | 35127 ft | 466 kts | 176° |
| 2026-04-30 13:19 | 23.30507 | 109.20718 | 35129 ft | 466 kts | 176° |
| 2026-04-30 13:19 | 23.24024 | 109.21571 | 35128 ft | 466 kts | 176° |
| 2026-04-30 13:20 | 23.17577 | 109.22420 | 35124 ft | 466 kts | 175° |
| 2026-04-30 13:20 | 23.11175 | 109.23264 | 35131 ft | 466 kts | 175° |
| 2026-04-30 13:21 | 23.04706 | 109.24112 | 35133 ft | 466 kts | 175° |
| 2026-04-30 13:22 | 22.95036 | 109.25381 | 35135 ft | 466 kts | 175° |
| 2026-04-30 13:22 | 22.85356 | 109.26648 | 35127 ft | 466 kts | 175° |
| 2026-04-30 13:23 | 22.75676 | 109.27915 | 35127 ft | 466 kts | 175° |
| 2026-04-30 13:24 | 22.62807 | 109.29607 | 35124 ft | 465 kts | 175° |
| 2026-04-30 13:25 | 22.49946 | 109.31302 | 35125 ft | 465 kts | 175° |
| 2026-04-30 13:26 | 22.33872 | 109.33418 | 35122 ft | 465 kts | 175° |
| 2026-04-30 13:28 | 22.17779 | 109.35519 | 35111 ft | 464 kts | 175° |
| 2026-04-30 13:28 | 22.08148 | 109.36770 | 35104 ft | 465 kts | 175° |
| 2026-04-30 13:29 | 21.95266 | 109.38442 | 35098 ft | 464 kts | 175° |
| 2026-04-30 13:31 | 21.79234 | 109.40522 | 35096 ft | 464 kts | 175° |
| 2026-04-30 13:32 | 21.63181 | 109.42936 | 35095 ft | 466 kts | 169° |
| 2026-04-30 13:33 | 21.50979 | 109.47903 | 35095 ft | 471 kts | 153° |
| 2026-04-30 13:34 | 21.42450 | 109.53194 | 35097 ft | 472 kts | 152° |
| 2026-04-30 13:35 | 21.30638 | 109.59136 | 35097 ft | 467 kts | 165° |
| 2026-04-30 13:36 | 21.17968 | 109.61884 | 35097 ft | 462 kts | 175° |
| 2026-04-30 13:36 | 21.08402 | 109.63249 | 35098 ft | 462 kts | 175° |
| 2026-04-30 13:37 | 20.98807 | 109.64635 | 35106 ft | 461 kts | 176° |
| 2026-04-30 13:38 | 20.89267 | 109.66014 | 35111 ft | 460 kts | 176° |
| 2026-04-30 13:39 | 20.76507 | 109.67859 | 35110 ft | 460 kts | 176° |
| 2026-04-30 13:40 | 20.66989 | 109.69232 | 35112 ft | 459 kts | 176° |
| 2026-04-30 13:40 | 20.60655 | 109.70147 | 35111 ft | 459 kts | 176° |
| 2026-04-30 13:41 | 20.54334 | 109.71568 | 35110 ft | 463 kts | 167° |
| 2026-04-30 13:41 | 20.48237 | 109.74208 | 35112 ft | 469 kts | 156° |
| 2026-04-30 13:42 | 20.43577 | 109.77260 | 35112 ft | 473 kts | 147° |
| 2026-04-30 13:42 | 20.35893 | 109.83862 | 35115 ft | 475 kts | 144° |
| 2026-04-30 13:43 | 20.30786 | 109.88327 | 35116 ft | 475 kts | 144° |
| 2026-04-30 13:43 | 20.25652 | 109.92787 | 35117 ft | 474 kts | 144° |
| 2026-04-30 13:44 | 20.20546 | 109.97208 | 35116 ft | 475 kts | 144° |
| 2026-04-30 13:44 | 20.15403 | 110.01660 | 35118 ft | 475 kts | 144° |
| 2026-04-30 13:45 | 20.07490 | 110.07922 | 35115 ft | 467 kts | 158° |
| 2026-04-30 13:46 | 20.01417 | 110.09985 | 35117 ft | 456 kts | 176° |
| 2026-04-30 13:46 | 19.95129 | 110.09895 | 35119 ft | 446 kts | 194° |
| 2026-04-30 13:47 | 19.89332 | 110.07871 | 34901 ft | 437 kts | 208° |
| 2026-04-30 13:47 | 19.86557 | 110.06533 | 34619 ft | 434 kts | 208° |
| 2026-04-30 13:47 | 19.83824 | 110.05198 | 34345 ft | 432 kts | 208° |
| 2026-04-30 13:47 | 19.81102 | 110.03869 | 34068 ft | 429 kts | 208° |
| 2026-04-30 13:48 | 19.78398 | 110.02553 | 33788 ft | 428 kts | 208° |
| 2026-04-30 13:48 | 19.75695 | 110.01241 | 33513 ft | 428 kts | 208° |
| 2026-04-30 13:48 | 19.72973 | 109.99925 | 33233 ft | 428 kts | 208° |
| 2026-04-30 13:48 | 19.70243 | 109.98607 | 32955 ft | 428 kts | 208° |
| 2026-04-30 13:49 | 19.67537 | 109.97304 | 32691 ft | 429 kts | 208° |
| 2026-04-30 13:49 | 19.64797 | 109.95985 | 32430 ft | 431 kts | 208° |
| 2026-04-30 13:49 | 19.62050 | 109.94662 | 32169 ft | 431 kts | 208° |
| 2026-04-30 13:49 | 19.59334 | 109.93356 | 31910 ft | 431 kts | 208° |
| 2026-04-30 13:50 | 19.56583 | 109.92033 | 31648 ft | 432 kts | 208° |
| 2026-04-30 13:50 | 19.51109 | 109.89401 | 31129 ft | 433 kts | 208° |
| 2026-04-30 13:50 | 19.48337 | 109.88070 | 30869 ft | 433 kts | 208° |
| 2026-04-30 13:51 | 19.45587 | 109.86749 | 30610 ft | 434 kts | 208° |
| 2026-04-30 13:51 | 19.42824 | 109.85422 | 30252 ft | 435 kts | 208° |
| 2026-04-30 13:51 | 19.40070 | 109.84100 | 29670 ft | 436 kts | 208° |
| 2026-04-30 13:51 | 19.37303 | 109.82774 | 28947 ft | 437 kts | 208° |
| 2026-04-30 13:52 | 19.34531 | 109.81456 | 28384 ft | 433 kts | 208° |
| 2026-04-30 13:52 | 19.31800 | 109.80164 | 27904 ft | 430 kts | 208° |
| 2026-04-30 13:52 | 19.29086 | 109.78881 | 27400 ft | 426 kts | 208° |
| 2026-04-30 13:52 | 19.26411 | 109.77614 | 26885 ft | 422 kts | 208° |
| 2026-04-30 13:53 | 19.23744 | 109.76347 | 26365 ft | 418 kts | 208° |
| 2026-04-30 13:53 | 19.21077 | 109.75065 | 25840 ft | 414 kts | 208° |
| 2026-04-30 13:53 | 19.18471 | 109.73807 | 25322 ft | 411 kts | 208° |
| 2026-04-30 13:53 | 19.15883 | 109.72559 | 24807 ft | 407 kts | 208° |
| 2026-04-30 13:54 | 19.13297 | 109.71312 | 24290 ft | 404 kts | 208° |
| 2026-04-30 13:54 | 19.10723 | 109.70070 | 23774 ft | 401 kts | 208° |
| 2026-04-30 13:54 | 19.08213 | 109.68859 | 23280 ft | 399 kts | 208° |
| 2026-04-30 13:54 | 19.05689 | 109.67644 | 22776 ft | 397 kts | 208° |
| 2026-04-30 13:55 | 19.03184 | 109.66438 | 22273 ft | 395 kts | 208° |
| 2026-04-30 13:55 | 19.00658 | 109.65222 | 21761 ft | 394 kts | 208° |
| 2026-04-30 13:55 | 18.98167 | 109.64023 | 21257 ft | 392 kts | 208° |
| 2026-04-30 13:55 | 18.95715 | 109.62843 | 20750 ft | 391 kts | 207° |
| 2026-04-30 13:56 | 18.93235 | 109.61650 | 20239 ft | 390 kts | 207° |
| 2026-04-30 13:56 | 18.90753 | 109.60457 | 19719 ft | 390 kts | 207° |
| 2026-04-30 13:56 | 18.88307 | 109.59281 | 19199 ft | 389 kts | 207° |
| 2026-04-30 13:56 | 18.85843 | 109.58096 | 18672 ft | 388 kts | 207° |
| 2026-04-30 13:57 | 18.83373 | 109.56911 | 18145 ft | 387 kts | 207° |
| 2026-04-30 13:57 | 18.80938 | 109.55742 | 17618 ft | 386 kts | 207° |
| 2026-04-30 13:57 | 18.78489 | 109.54568 | 17098 ft | 385 kts | 207° |
| 2026-04-30 13:57 | 18.76062 | 109.53404 | 16570 ft | 384 kts | 207° |
| 2026-04-30 13:58 | 18.73614 | 109.52231 | 16057 ft | 382 kts | 207° |
| 2026-04-30 13:58 | 18.68790 | 109.49918 | 15029 ft | 379 kts | 207° |
| 2026-04-30 13:58 | 18.66390 | 109.48766 | 14508 ft | 377 kts | 207° |
| 2026-04-30 13:59 | 18.64005 | 109.47623 | 13983 ft | 375 kts | 207° |
| 2026-04-30 13:59 | 18.61650 | 109.46493 | 13475 ft | 373 kts | 206° |
| 2026-04-30 13:59 | 18.59261 | 109.45349 | 12952 ft | 371 kts | 206° |
| 2026-04-30 13:59 | 18.56929 | 109.44231 | 12434 ft | 370 kts | 206° |
| 2026-04-30 14:00 | 18.54590 | 109.43111 | 11905 ft | 368 kts | 206° |
| 2026-04-30 14:00 | 18.49912 | 109.40938 | 10874 ft | 365 kts | 201° |
| 2026-04-30 14:00 | 18.47475 | 109.40255 | 10570 ft | 357 kts | 192° |
| 2026-04-30 14:01 | 18.45062 | 109.39928 | 10416 ft | 345 kts | 187° |
| 2026-04-30 14:01 | 18.42697 | 109.39693 | 10259 ft | 333 kts | 187° |
| 2026-04-30 14:01 | 18.40422 | 109.39476 | 10111 ft | 323 kts | 187° |
| 2026-04-30 14:01 | 18.38207 | 109.39262 | 9912 ft | 314 kts | 187° |
| 2026-04-30 14:02 | 18.36009 | 109.39044 | 9617 ft | 310 kts | 187° |
| 2026-04-30 14:02 | 18.33952 | 109.38837 | 9347 ft | 306 kts | 187° |
| 2026-04-30 14:02 | 18.31817 | 109.38621 | 9070 ft | 301 kts | 187° |
| 2026-04-30 14:02 | 18.29764 | 109.38412 | 8809 ft | 297 kts | 187° |
| 2026-04-30 14:03 | 18.27694 | 109.38203 | 8552 ft | 293 kts | 187° |
| 2026-04-30 14:03 | 18.25685 | 109.38000 | 8296 ft | 288 kts | 187° |
| 2026-04-30 14:03 | 18.23685 | 109.37791 | 8050 ft | 284 kts | 188° |
| 2026-04-30 14:03 | 18.21846 | 109.37171 | 7766 ft | 279 kts | 216° |
| 2026-04-30 14:04 | 18.20574 | 109.35668 | 7503 ft | 273 kts | 245° |
| 2026-04-30 14:04 | 18.20095 | 109.33788 | 7260 ft | 268 kts | 263° |
| 2026-04-30 14:04 | 18.19883 | 109.31832 | 7032 ft | 264 kts | 263° |
| 2026-04-30 14:04 | 18.19670 | 109.29939 | 6810 ft | 261 kts | 262° |
| 2026-04-30 14:05 | 18.19443 | 109.28066 | 6593 ft | 257 kts | 262° |
| 2026-04-30 14:05 | 18.19208 | 109.26210 | 6369 ft | 253 kts | 262° |
| 2026-04-30 14:05 | 18.18976 | 109.24419 | 6154 ft | 249 kts | 262° |
| 2026-04-30 14:05 | 18.18740 | 109.22613 | 5938 ft | 245 kts | 261° |
| 2026-04-30 14:06 | 18.18630 | 109.20850 | 5705 ft | 242 kts | 279° |
| 2026-04-30 14:06 | 18.20851 | 109.18510 | 5255 ft | 237 kts | 349° |
| 2026-04-30 14:07 | 18.24101 | 109.18122 | 4881 ft | 230 kts | 353° |
| 2026-04-30 14:07 | 18.25682 | 109.18077 | 4675 ft | 226 kts | 14° |
| 2026-04-30 14:07 | 18.27038 | 109.18830 | 4475 ft | 220 kts | 48° |
| 2026-04-30 14:08 | 18.27889 | 109.21707 | 3935 ft | 205 kts | 87° |
| 2026-04-30 14:08 | 18.27969 | 109.23170 | 3724 ft | 193 kts | 86° |
| 2026-04-30 14:08 | 18.28248 | 109.25881 | 3159 ft | 180 kts | 83° |
| 2026-04-30 14:09 | 18.28414 | 109.27157 | 2921 ft | 172 kts | 82° |
| 2026-04-30 14:09 | 18.28578 | 109.28378 | 2644 ft | 166 kts | 82° |
| 2026-04-30 14:09 | 18.28888 | 109.30676 | 2071 ft | 153 kts | 82° |
| 2026-04-30 14:10 | 18.29044 | 109.31783 | 1685 ft | 152 kts | 81° |
| 2026-04-30 14:10 | 18.29196 | 109.32867 | 1408 ft | 142 kts | 82° |
| 2026-04-30 14:10 | 18.29319 | 109.33846 | 1311 ft | 134 kts | 81° |
| 2026-04-30 14:10 | 18.29464 | 109.34814 | 964 ft | 133 kts | 83° |
| 2026-04-30 14:11 | 18.29571 | 109.35763 | 774 ft | 130 kts | 83° |
| 2026-04-30 14:11 | 18.29688 | 109.36712 | 612 ft | 130 kts | 82° |
| 2026-04-30 14:11 | 18.29813 | 109.37643 | 447 ft | 129 kts | 82° |
| 2026-04-30 14:11 | 18.29941 | 109.38586 | 282 ft | 129 kts | 82° |
| 2026-04-30 14:12 | 18.30071 | 109.39513 | 119 ft | 129 kts | 82° |
| 2026-04-30 14:12 | 18.30192 | 109.40403 | 69 ft | 107 kts | 84° |
| 2026-04-30 14:12 | 18.30264 | 109.41020 | 69 ft | 73 kts | 80° |
| 2026-04-30 14:12 | 18.30305 | 109.41295 | 69 ft | 35 kts | 60° |
| 2026-04-30 14:13 | 18.30367 | 109.41308 | 69 ft | 0 kts | 347° |
| 2026-04-30 14:13 | 18.30379 | 109.41305 | 69 ft | 2 kts | 352° |
| 2026-04-30 14:13 | 18.30401 | 109.41303 | 69 ft | 4 kts | 352° |
| 2026-04-30 14:13 | 18.30433 | 109.41299 | 69 ft | 5 kts | 353° |
| 2026-04-30 14:14 | 18.30475 | 109.41291 | 69 ft | 6 kts | 345° |
| 2026-04-30 14:14 | 18.30479 | 109.41263 | 69 ft | 5 kts | 251° |
| 2026-04-30 14:14 | 18.30466 | 109.41219 | 69 ft | 7 kts | 256° |
| 2026-04-30 14:14 | 18.30457 | 109.41161 | 69 ft | 8 kts | 263° |
| 2026-04-30 14:15 | 18.30449 | 109.41097 | 69 ft | 8 kts | 262° |
| 2026-04-30 14:15 | 18.30442 | 109.41034 | 69 ft | 7 kts | 271° |
| 2026-04-30 14:15 | 18.30468 | 109.41003 | 69 ft | 5 kts | 334° |
| 2026-04-30 14:15 | 18.30504 | 109.40992 | 69 ft | 5 kts | 353° |
| 2026-04-30 14:16 | 18.30542 | 109.40989 | 69 ft | 5 kts | 355° |
| 2026-04-30 14:16 | 18.30579 | 109.40984 | 70 ft | 5 kts | 349° |
| 2026-04-30 14:16 | 18.30622 | 109.40977 | 70 ft | 6 kts | 351° |
| 2026-04-30 14:16 | 18.30672 | 109.40968 | 70 ft | 7 kts | 352° |
| 2026-04-30 14:17 | 18.30725 | 109.40962 | 70 ft | 7 kts | 357° |
| 2026-04-30 14:17 | 18.30776 | 109.40961 | 70 ft | 7 kts | 354° |
| 2026-04-30 14:17 | 18.30818 | 109.40954 | 70 ft | 5 kts | 351° |
| 2026-04-30 14:17 | 18.30848 | 109.40950 | 70 ft | 0 kts | 355° |